Terminal Aerodrome Forecast
Issued by NWS

Home | Current Version | Previous Version | Text Only | Print | Product List | Glossary Off
Versions: 1 2 3 4 5 6 7 8 9 10 11 12 13 14 15 16 17 18

935
FTUS43 KGRB 231733
TAFCWA
TAF
KCWA 231733Z 2318/2418 27010G17KT P6SM OVC009
     FM232100 29007KT P6SM BKN011
     FM240300 30005KT P6SM SCT016
     FM240800 VRB03KT P6SM SCT012
      TEMPO 2408/2412 3SM BR
     FM241400 10004KT P6SM SCT012 BKN150=

USA.gov is the U.S. government's official web portal to all federal, state and local government web resources and services.